Bear Butte, South Dakota
Current Conditions -  °F | °C
As of 1:58 AM on Sunday 26 Oct 2014 (Local Time) from KRCA Reporting Station
Clear Clear  
Wind Chill: 54°   Ceiling: Unl
Heat Index: 54°   Visibility: 10mi
Dew Point: 38°   Wind: 10mph
Humidity: 54%   Direction: 140°SE
Pressure: 29.72"   Gusts: NA
Location:  44.4145°N, 103.17°W
Report Text: KRCA 260758Z AUTO 14009KT 10SM CLR 12/03 A2972 RMK AO2 SLP056 T01230033 $
Loading
Personal Weather Stations






























Interactive Weather Map
Tropical Storm Tracking
New forecast layout! Learn more

10-Day Weather Forecast

Advertisements
Track Severe Weather on mobile